Time;durP1;ratioP1;P1;durP2;ratioP2;P2;SDS_P1;SDS_P2;PMS_P1;PMS_P2;Temp;Humidity;BMP_temperature;BMP_pressure;BME280_temperature;BME280_humidity;BME280_pressure;Samples;Min_cycle;Max_cycle;Signal;HPM_P1;HPM_P2
2022/10/01 00:00:28;;;;;;;6.53;5.93;;;;;;;11.88;74.15;99657.97;10246655;28;20047;-69
2022/10/01 00:05:29;;;;;;;7.05;6.35;;;;;;;11.76;74.96;99664.50;10248774;28;20050;-68
2022/10/01 00:10:31;;;;;;;6.95;5.57;;;;;;;11.75;75.23;99662.81;10245546;28;20047;-68
2022/10/01 00:15:32;;;;;;;8.80;7.30;;;;;;;11.72;75.28;99655.09;10242822;28;20062;-68
2022/10/01 00:20:34;;;;;;;9.35;6.78;;;;;;;11.74;75.62;99650.44;10240158;28;20062;-70
2022/10/01 00:25:35;;;;;;;10.35;7.60;;;;;;;11.68;75.70;99641.22;10241384;28;20482;-69
2022/10/01 00:30:37;;;;;;;7.97;7.25;;;;;;;11.59;76.31;99628.75;10241694;28;20051;-68
2022/10/01 00:35:40;;;;;;;9.47;7.23;;;;;;;11.44;77.09;99625.72;10252833;28;20084;-68
2022/10/01 00:40:42;;;;;;;8.60;7.57;;;;;;;11.30;77.65;99619.88;10240915;28;20058;-69
2022/10/01 00:45:43;;;;;;;8.82;7.82;;;;;;;11.42;77.67;99606.38;10238131;28;20055;-68
2022/10/01 00:50:47;;;;;;;9.75;7.45;;;;;;;11.36;77.41;99604.28;10240340;28;20589;-68
2022/10/01 00:55:56;;;;;;;7.93;7.13;;;;;;;11.21;78.44;99596.72;10236148;28;20062;-68
2022/10/01 01:00:58;;;;;;;7.88;7.13;;;;;;;11.30;78.53;99606.56;10240583;28;20058;-69
2022/10/01 01:05:59;;;;;;;7.78;6.78;;;;;;;11.32;77.76;99599.25;10243603;28;20053;-69
2022/10/01 01:11:22;;;;;;;9.75;7.13;;;;;;;11.46;77.50;99605.09;10239743;28;20078;-69
2022/10/01 01:16:31;;;;;;;6.97;6.18;;;;;;;11.53;76.88;99587.56;10238284;28;20047;-68
2022/10/01 01:21:41;;;;;;;7.30;6.30;;;;;;;11.55;77.12;99587.41;10254363;28;20047;-69
2022/10/01 01:27:07;;;;;;;7.90;6.00;;;;;;;11.57;76.52;99586.25;10243321;28;20042;-68
2022/10/01 01:32:39;;;;;;;7.63;6.05;;;;;;;11.51;77.55;99570.84;10245533;28;20059;-70
2022/10/01 01:37:49;;;;;;;6.55;5.95;;;;;;;11.44;77.49;99567.06;10259191;28;20131;-69
2022/10/01 01:42:54;;;;;;;7.03;6.32;;;;;;;11.52;77.55;99556.53;10247247;28;20066;-67
2022/10/01 01:47:59;;;;;;;6.95;6.25;;;;;;;11.52;77.73;99559.22;10238590;28;20049;-70
2022/10/01 01:53:01;;;;;;;6.78;5.72;;;;;;;11.50;78.16;99547.88;10259390;28;20110;-69
2022/10/01 01:58:02;;;;;;;7.78;6.78;;;;;;;11.55;78.13;99545.59;10262215;28;20558;-69
2022/10/01 02:03:05;;;;;;;9.43;6.30;;;;;;;11.47;77.98;99540.16;10255799;28;20066;-69
2022/10/01 02:08:26;;;;;;;6.10;5.50;;;;;;;11.45;78.61;99539.44;10243716;28;20082;-70
2022/10/01 02:13:56;;;;;;;7.90;6.63;;;;;;;11.34;79.58;99539.66;10253906;28;20043;-69
2022/10/01 02:19:11;;;;;;;7.22;6.50;;;;;;;11.48;78.98;99534.69;10264225;28;20051;-71
2022/10/01 02:24:18;;;;;;;8.18;7.30;;;;;;;11.42;79.08;99534.41;10278898;28;20057;-70
2022/10/01 02:29:21;;;;;;;7.70;6.97;;;;;;;11.48;79.52;99537.34;10260407;28;20700;-71
2022/10/01 02:34:28;;;;;;;6.90;6.20;;;;;;;11.42;79.22;99535.25;10264910;28;20057;-71
2022/10/01 02:39:31;;;;;;;6.50;5.90;;;;;;;11.38;79.41;99527.69;10268825;28;20070;-70
2022/10/01 02:44:38;;;;;;;6.75;6.15;;;;;;;11.40;79.39;99525.75;10273263;28;20065;-70
2022/10/01 02:49:40;;;;;;;7.30;6.10;;;;;;;11.42;79.66;99513.09;10275969;28;20632;-70
2022/10/01 02:54:49;;;;;;;6.95;5.97;;;;;;;11.50;79.07;99513.22;10285073;28;20061;-70
2022/10/01 02:59:59;;;;;;;6.90;6.13;;;;;;;11.36;78.93;99503.03;10286738;28;20139;-71
2022/10/01 03:05:01;;;;;;;7.18;6.47;;;;;;;11.37;79.31;99504.72;10292940;28;20128;-71
2022/10/01 03:10:06;;;;;;;6.13;5.55;;;;;;;11.41;79.07;99493.63;10297531;28;20521;-71
2022/10/01 03:15:08;;;;;;;6.18;5.38;;;;;;;11.39;78.41;99492.06;10294918;28;20701;-70
2022/10/01 03:20:11;;;;;;;5.60;5.10;;;;;;;11.39;78.35;99492.06;10254125;28;20050;-68
2022/10/01 03:25:14;;;;;;;4.90;4.40;;;;;;;11.39;78.00;99487.56;10263042;28;20062;-69
2022/10/01 03:30:15;;;;;;;4.57;4.18;;;;;;;11.41;77.20;99484.75;10249477;28;20066;-69
2022/10/01 03:35:17;;;;;;;5.97;3.83;;;;;;;11.45;76.69;99480.81;10253746;28;20085;-68
2022/10/01 03:40:18;;;;;;;5.57;3.78;;;;;;;11.33;77.84;99466.84;10251517;28;20055;-69
2022/10/01 03:45:19;;;;;;;4.43;4.03;;;;;;;11.42;79.13;99471.28;10253421;28;20130;-69
2022/10/01 03:50:21;;;;;;;4.75;3.83;;;;;;;11.41;79.56;99474.09;10247468;28;20049;-69
2022/10/01 03:55:24;;;;;;;6.10;4.40;;;;;;;11.45;80.59;99470.16;10245600;28;20055;-69
2022/10/01 04:00:26;;;;;;;3.85;3.45;;;;;;;11.41;83.17;99471.44;10248348;28;20694;-70
2022/10/01 04:05:27;;;;;;;4.68;4.28;;;;;;;11.34;83.24;99467.72;10247791;28;20058;-68
2022/10/01 04:10:28;;;;;;;4.88;4.47;;;;;;;11.22;84.21;99464.41;10241998;28;20066;-71
2022/10/01 04:15:31;;;;;;;5.53;4.40;;;;;;;11.10;86.07;99461.06;10239704;28;20469;-72
2022/10/01 04:20:35;;;;;;;5.03;4.22;;;;;;;11.18;86.37;99463.00;10253045;28;20050;-71
2022/10/01 04:25:36;;;;;;;4.45;4.05;;;;;;;11.08;89.41;99468.34;10267951;28;20051;-71
2022/10/01 04:30:40;;;;;;;6.55;4.63;;;;;;;11.10;90.01;99461.06;10222750;28;20051;-68
2022/10/01 04:35:42;;;;;;;5.18;4.68;;;;;;;11.12;90.15;99459.09;10249673;28;20064;-70
2022/10/01 04:40:43;;;;;;;5.00;3.97;;;;;;;11.03;90.34;99444.81;10236183;28;20067;-70
2022/10/01 04:45:45;;;;;;;6.97;4.22;;;;;;;10.95;92.26;99437.56;10235660;28;20636;-69
2022/10/01 04:50:46;;;;;;;4.70;3.92;;;;;;;10.92;91.97;99437.88;10233866;28;20081;-70
2022/10/01 04:55:47;;;;;;;4.32;3.92;;;;;;;10.88;93.81;99428.47;10236454;28;20067;-69
2022/10/01 05:00:49;;;;;;;4.05;3.65;;;;;;;10.91;93.12;99428.22;10234300;28;20502;-69
2022/10/01 05:05:50;;;;;;;3.85;3.53;;;;;;;10.89;92.48;99427.50;10268325;28;20110;-70
2022/10/01 05:10:52;;;;;;;5.30;3.90;;;;;;;10.76;93.17;99416.34;10242390;28;20051;-69
2022/10/01 05:15:53;;;;;;;4.40;4.00;;;;;;;10.71;94.50;99397.31;10233857;28;20494;-69
2022/10/01 05:20:54;;;;;;;4.40;4.00;;;;;;;10.79;95.21;99398.28;10272539;28;20094;-71
2022/10/01 05:25:56;;;;;;;5.70;3.95;;;;;;;10.79;94.46;99402.75;10240534;28;20062;-70
2022/10/01 05:31:02;;;;;;;3.70;3.15;;;;;;;10.72;95.76;99398.97;10239470;28;20050;-71
2022/10/01 05:36:05;;;;;;;4.88;3.95;;;;;;;10.77;95.29;99407.38;10231382;28;20058;-69
2022/10/01 05:41:07;;;;;;;5.05;3.90;;;;;;;10.71;95.79;99403.47;10236437;28;20065;-68
2022/10/01 05:46:09;;;;;;;4.00;3.42;;;;;;;10.68;96.79;99409.09;10236136;28;20059;-69
2022/10/01 05:51:14;;;;;;;5.43;3.42;;;;;;;10.67;96.33;99401.25;10235215;28;20042;-70
2022/10/01 05:56:15;;;;;;;4.22;3.72;;;;;;;10.71;97.03;99394.66;10232864;28;20055;-71
2022/10/01 06:01:16;;;;;;;4.05;3.63;;;;;;;10.78;96.18;99393.94;10233726;28;20051;-70
2022/10/01 06:06:25;;;;;;;4.80;3.85;;;;;;;10.78;96.72;99387.78;10234876;28;20066;-71
2022/10/01 06:11:26;;;;;;;4.10;3.17;;;;;;;10.76;97.02;99395.03;10236478;28;20051;-70
2022/10/01 06:16:28;;;;;;;3.53;3.17;;;;;;;10.86;96.25;99374.56;10256934;28;20061;-70
2022/10/01 06:21:30;;;;;;;3.90;3.60;;;;;;;10.87;96.64;99367.41;10265279;28;20146;-70
2022/10/01 06:26:32;;;;;;;3.97;3.20;;;;;;;10.69;99.37;99343.38;10261237;28;20054;-69
2022/10/01 06:31:33;;;;;;;4.15;2.72;;;;;;;10.63;99.84;99330.66;10257481;28;20050;-72
2022/10/01 06:36:35;;;;;;;3.30;3.00;;;;;;;10.58;100.00;99333.75;10257849;28;20054;-73
2022/10/01 06:41:36;;;;;;;3.13;2.78;;;;;;;10.77;99.79;99338.16;10250475;28;20530;-69
2022/10/01 06:46:38;;;;;;;3.40;3.10;;;;;;;10.73;100.00;99339.44;10237849;28;20054;-70
2022/10/01 06:57:19;;;;;;;3.50;3.20;;;;;;;10.69;100.00;99354.88;10193644;29;20079;-70
2022/10/01 07:02:26;;;;;;;4.65;3.33;;;;;;;10.76;100.00;99325.84;10243460;28;20065;-69
2022/10/01 07:07:34;;;;;;;4.78;3.13;;;;;;;10.73;100.00;99297.72;10280141;28;20348;-70
2022/10/01 07:12:36;;;;;;;4.63;3.17;;;;;;;10.83;100.00;99294.97;10283285;28;20039;-70
2022/10/01 07:17:47;;;;;;;3.83;3.17;;;;;;;10.80;100.00;99305.94;10279137;28;20058;-70
2022/10/01 07:22:54;;;;;;;4.00;2.95;;;;;;;10.74;100.00;99301.19;10297130;28;20062;-73
2022/10/01 07:27:57;;;;;;;3.42;3.13;;;;;;;10.80;100.00;99305.94;10280100;28;20031;-71
2022/10/01 07:32:59;;;;;;;4.90;3.47;;;;;;;10.71;100.00;99310.31;10283151;28;20061;-69
2022/10/01 07:38:06;;;;;;;2.78;2.50;;;;;;;10.76;100.00;99331.16;10290641;28;20359;-69
2022/10/01 07:43:08;;;;;;;4.18;3.22;;;;;;;10.75;100.00;99311.69;10280255;28;20070;-70
2022/10/01 07:48:09;;;;;;;3.65;2.70;;;;;;;10.77;100.00;99301.72;10289324;28;20054;-70
2022/10/01 07:53:11;;;;;;;3.50;3.20;;;;;;;10.79;100.00;99310.44;10269287;28;20054;-69
2022/10/01 07:58:12;;;;;;;2.85;2.65;;;;;;;10.69;100.00;99314.09;10245934;28;20050;-68
2022/10/01 08:03:14;;;;;;;4.20;3.17;;;;;;;10.70;100.00;99326.44;10236877;28;20058;-68
2022/10/01 08:08:15;;;;;;;5.85;3.28;;;;;;;10.69;100.00;99314.09;10240625;28;20544;-68
2022/10/01 08:13:17;;;;;;;2.75;2.55;;;;;;;10.74;100.00;99304.69;10236416;28;20070;-68
2022/10/01 08:18:19;;;;;;;3.03;2.63;;;;;;;10.71;100.00;99323.63;10233158;28;20049;-69
2022/10/01 08:23:21;;;;;;;3.17;2.88;;;;;;;10.74;100.00;99322.50;10237111;28;20484;-70
2022/10/01 08:28:22;;;;;;;3.28;2.80;;;;;;;10.77;100.00;99311.56;10235972;28;20522;-70
2022/10/01 08:33:23;;;;;;;2.80;2.60;;;;;;;10.86;100.00;99337.28;10236668;28;20391;-68
2022/10/01 08:38:25;;;;;;;3.00;2.42;;;;;;;10.87;100.00;99323.00;10252138;28;20054;-73
2022/10/01 08:43:28;;;;;;;2.60;2.40;;;;;;;10.91;100.00;99329.72;10251740;28;20055;-67
2022/10/01 08:48:51;;;;;;;3.10;2.50;;;;;;;10.98;100.00;99353.06;10240271;28;20422;-67
2022/10/01 08:54:21;;;;;;;3.13;2.83;;;;;;;11.04;100.00;99355.16;10258723;28;20417;-68
2022/10/01 08:59:34;;;;;;;3.58;3.28;;;;;;;10.98;100.00;99345.91;10277722;28;20093;-70
2022/10/01 09:04:36;;;;;;;3.05;2.58;;;;;;;10.92;100.00;99350.00;10296792;28;20380;-70
2022/10/01 09:09:45;;;;;;;7.07;5.75;;;;;;;10.93;100.00;99354.34;10286705;28;20113;-71
2022/10/01 09:14:59;;;;;;;3.53;3.22;;;;;;;10.99;100.00;99328.09;10246608;28;20856;-68
2022/10/01 09:20:15;;;;;;;3.85;3.05;;;;;;;10.99;100.00;99341.41;10240438;28;20039;-68
2022/10/01 09:25:26;;;;;;;3.38;2.50;;;;;;;10.96;100.00;99327.44;10236914;28;20301;-67
2022/10/01 09:30:28;;;;;;;4.75;4.20;;;;;;;10.96;100.00;99338.06;10233410;28;21845;-69
2022/10/01 09:35:37;;;;;;;4.68;3.30;;;;;;;11.01;100.00;99334.13;10236231;28;20055;-68
2022/10/01 09:40:53;;;;;;;8.20;6.38;;;;;;;11.06;100.00;99345.16;10235897;28;20047;-68
2022/10/01 09:45:55;;;;;;;4.07;2.83;;;;;;;10.98;100.00;99345.91;10232875;28;20063;-67
2022/10/01 09:51:03;;;;;;;3.17;2.88;;;;;;;11.00;100.00;99348.44;10225984;28;20051;-68
2022/10/01 09:56:20;;;;;;;3.58;2.70;;;;;;;11.04;100.00;99361.28;10232370;28;20046;-69
2022/10/01 10:01:29;;;;;;;4.10;2.95;;;;;;;11.21;100.00;99359.66;10230461;28;21576;-69
2022/10/01 10:06:30;;;;;;;3.78;3.40;;;;;;;11.30;100.00;99349.94;10231652;28;20039;-69
2022/10/01 10:11:33;;;;;;;2.85;2.08;;;;;;;11.36;100.00;99359.97;10230874;28;20261;-69
2022/10/01 10:16:36;;;;;;;2.65;1.75;;;;;;;11.53;100.00;99361.00;10231268;28;20050;-68
2022/10/01 10:21:50;;;;;;;3.13;2.10;;;;;;;11.75;100.00;99362.34;10231772;28;20046;-69
2022/10/01 10:26:58;;;;;;;3.03;2.00;;;;;;;11.60;100.00;99364.72;10226257;28;20070;-69
2022/10/01 10:32:17;;;;;;;2.53;2.10;;;;;;;11.47;100.00;99367.78;10249017;28;20061;-72
2022/10/01 10:37:27;;;;;;;2.78;1.75;;;;;;;11.46;100.00;99359.94;10272588;28;20062;-69
2022/10/01 10:42:28;;;;;;;5.18;1.90;;;;;;;11.55;100.00;99372.34;10259018;28;20047;-70
2022/10/01 10:47:32;;;;;;;2.72;1.88;;;;;;;11.75;100.00;99359.69;10245003;28;20058;-70
2022/10/01 10:52:35;;;;;;;2.40;2.20;;;;;;;11.77;100.00;99359.53;10277975;28;21120;-70
2022/10/01 10:57:37;;;;;;;4.33;3.67;;;;;;;11.70;100.00;99366.50;10280336;28;20049;-71
2022/10/01 11:02:47;;;;;;;2.75;2.40;;;;;;;11.97;100.00;99373.59;10250879;28;20047;-72
2022/10/01 11:07:53;;;;;;;3.65;1.75;;;;;;;12.20;100.00;99369.44;10232885;28;20057;-68
2022/10/01 11:13:43;;;;;;;2.92;1.88;;;;;;;12.58;100.00;99365.66;10230853;28;20074;-69
2022/10/01 11:19:04;;;;;;;6.05;1.45;;;;;;;12.57;99.49;99375.50;10228947;28;20141;-69
2022/10/01 11:24:08;;;;;;;2.17;1.33;;;;;;;12.38;100.00;99388.09;10239461;28;20473;-69
2022/10/01 11:29:28;;;;;;;2.30;1.63;;;;;;;12.42;100.00;99387.78;10230898;28;20754;-69
2022/10/01 11:34:55;;;;;;;2.15;1.17;;;;;;;12.36;100.00;99379.38;10227948;28;20043;-69
2022/10/01 11:40:01;;;;;;;1.90;1.20;;;;;;;12.25;100.00;99390.31;10222591;28;20157;-67
2022/10/01 11:45:22;;;;;;;2.15;1.30;;;;;;;12.32;100.00;99391.34;10232867;28;20062;-70
2022/10/01 11:50:27;;;;;;;1.60;1.25;;;;;;;12.77;100.00;99391.31;10234185;28;20054;-69
2022/10/01 12:01:09;;;;;;;2.13;1.40;;;;;;;13.29;97.43;99380.50;10237983;28;20078;-70
2022/10/01 12:06:13;;;;;;;2.70;1.77;;;;;;;13.34;95.01;99388.06;10238380;28;20886;-68
2022/10/01 12:11:35;;;;;;;2.03;1.50;;;;;;;13.31;96.45;99391.88;10232284;28;20066;-69
2022/10/01 12:16:49;;;;;;;1.40;1.30;;;;;;;13.21;97.26;99399.16;10285289;28;20073;-70
2022/10/01 12:21:59;;;;;;;1.67;1.02;;;;;;;13.36;96.92;99407.44;10248502;28;20122;-68
2022/10/01 12:27:19;;;;;;;1.35;1.00;;;;;;;13.60;95.58;99406.66;10247816;28;20117;-69
2022/10/01 12:32:26;;;;;;;1.80;1.40;;;;;;;14.70;93.11;99395.66;10246124;28;20128;-68
2022/10/01 12:37:49;;;;;;;2.15;0.90;;;;;;;15.29;83.72;99394.44;10236724;28;20055;-69
2022/10/01 12:43:23;;;;;;;1.02;0.73;;;;;;;15.40;83.42;99399.41;10239202;28;20516;-70
2022/10/01 12:48:37;;;;;;;2.42;0.90;;;;;;;16.00;80.30;99407.78;10231714;28;20420;-68
2022/10/01 12:53:45;;;;;;;1.10;0.90;;;;;;;15.13;84.48;99396.19;10234842;28;20053;-69
2022/10/01 12:58:52;;;;;;;3.58;1.40;;;;;;;14.83;87.93;99395.13;10236524;28;20046;-72
2022/10/01 13:04:16;;;;;;;1.20;0.90;;;;;;;15.19;84.45;99389.28;10234593;28;20055;-70
2022/10/01 13:09:30;;;;;;;4.82;2.28;;;;;;;14.81;87.05;99397.97;10233004;28;20526;-69
2022/10/01 13:14:33;;;;;;;2.05;1.50;;;;;;;18.80;69.29;99391.50;10230070;28;20078;-67
2022/10/01 13:19:50;;;;;;;1.38;0.68;;;;;;;21.28;56.83;99387.25;10229527;28;20065;-69
2022/10/01 13:25:14;;;;;;;7.80;5.25;;;;;;;19.11;64.71;99395.66;10232380;28;20588;-65
2022/10/01 13:30:19;;;;;;;1.27;0.90;;;;;;;21.31;61.51;99397.66;10230222;28;20055;-67
2022/10/01 13:35:34;;;;;;;2.67;1.88;;;;;;;21.74;55.55;99406.22;10228922;28;20101;-65
2022/10/01 13:40:36;;;;;;;10.70;9.13;;;;;;;21.21;57.02;99393.75;10229376;28;20142;-66
2022/10/01 13:45:40;;;;;;;3.33;1.50;;;;;;;19.98;61.04;99393.22;10229099;28;20784;-71
2022/10/01 13:51:02;;;;;;;4.10;2.80;;;;;;;24.47;50.23;99393.38;10228813;28;20054;-68
2022/10/01 13:56:04;;;;;;;1.03;0.50;;;;;;;27.75;39.88;99385.66;10229144;28;20359;-68
2022/10/01 14:01:14;;;;;;;;;;;;;;;29.05;36.28;99386.38;10227460;28;20055;-68
2022/10/01 14:06:47;;;;;;;1.90;0.50;;;;;;;27.36;38.92;99389.34;10921458;23;19933;-68
2022/10/01 14:17:31;;;;;;;1.83;1.20;;;;;;;20.05;58.54;99391.38;10183271;28;20062;-65
2022/10/01 14:22:52;;;;;;;1.67;0.45;;;;;;;17.97;67.10;99407.41;10177681;28;20058;-67
2022/10/01 14:28:32;;;;;;;0.88;0.50;;;;;;;17.08;71.48;99371.66;10176799;28;20054;-65
2022/10/01 14:34:00;;;;;;;3.00;1.30;;;;;;;17.53;70.83;99386.84;10173762;28;20110;-67
2022/10/01 14:39:03;;;;;;;1.27;0.38;;;;;;;17.95;69.46;99396.84;10179402;28;20062;-68
2022/10/01 14:44:21;;;;;;;1.77;0.60;;;;;;;17.95;70.05;99396.84;10173374;28;20529;-68
2022/10/01 14:49:31;;;;;;;0.77;0.38;;;;;;;17.81;70.17;99389.66;10176270;28;20410;-69
2022/10/01 14:54:59;;;;;;;1.65;0.30;;;;;;;17.46;71.88;99402.94;10178178;28;20203;-67
2022/10/01 15:00:08;;;;;;;1.15;0.38;;;;;;;17.31;72.91;99401.09;10200408;28;20051;-67
2022/10/01 15:05:31;;;;;;;2.42;0.47;;;;;;;17.22;74.13;99402.22;10175752;28;20658;-69
2022/10/01 15:10:32;;;;;;;1.98;0.50;;;;;;;17.03;75.99;99413.56;10169324;28;20059;-64
2022/10/01 15:15:39;;;;;;;1.40;1.00;;;;;;;16.92;75.74;99423.75;10177376;28;20396;-67
2022/10/01 15:20:54;;;;;;;1.15;0.50;;;;;;;16.66;76.63;99412.56;10176716;28;20058;-65
2022/10/01 15:25:59;;;;;;;0.85;0.63;;;;;;;16.70;76.68;99435.38;10181554;28;20047;-66
2022/10/01 15:31:02;;;;;;;2.95;0.75;;;;;;;16.71;76.32;99443.25;10180423;28;20062;-68
2022/10/01 15:36:05;;;;;;;;;;;;;;;16.63;76.23;99454.06;10185152;28;20092;-67
2022/10/01 15:41:06;;;;;;;3.22;0.98;;;;;;;16.47;76.63;99438.97;10176263;28;19937;-69
2022/10/01 15:46:33;;;;;;;1.70;0.70;;;;;;;16.29;76.35;99427.69;10177532;28;20157;-67
2022/10/01 15:51:43;;;;;;;3.83;0.77;;;;;;;16.34;76.83;99460.22;10177439;28;20266;-68
2022/10/01 15:56:47;;;;;;;1.52;0.70;;;;;;;16.17;77.66;99451.44;10181061;28;20052;-63
2022/10/01 16:01:48;;;;;;;3.05;1.17;;;;;;;16.23;78.07;99488.34;10187339;28;20184;-65
2022/10/01 16:06:50;;;;;;;2.13;1.05;;;;;;;16.20;77.76;99489.53;10177467;28;20079;-64
2022/10/01 16:12:02;;;;;;;2.78;0.75;;;;;;;16.13;78.44;99501.16;10176260;28;20532;-62
2022/10/01 16:17:16;;;;;;;3.40;0.80;;;;;;;16.09;79.18;99519.44;10179430;28;20051;-63
2022/10/01 16:22:28;;;;;;;3.40;0.97;;;;;;;15.99;80.06;99529.56;10178839;28;20057;-64
2022/10/01 16:27:42;;;;;;;6.25;1.30;;;;;;;15.90;80.95;99537.69;10190768;28;20408;-63
2022/10/01 16:32:43;;;;;;;3.70;0.95;;;;;;;15.81;81.27;99552.16;10176581;28;20553;-62
2022/10/01 16:37:48;;;;;;;2.20;1.10;;;;;;;15.74;82.10;99559.19;10185539;28;20450;-63
2022/10/01 16:42:51;;;;;;;6.03;1.27;;;;;;;15.64;82.63;99555.88;10184208;28;20059;-63
2022/10/01 16:47:55;;;;;;;4.32;1.80;;;;;;;15.54;83.53;99548.88;10180381;28;20058;-62
2022/10/01 16:53:00;;;;;;;3.05;1.70;;;;;;;15.61;84.79;99559.72;10176352;28;20176;-62
2022/10/01 16:58:02;;;;;;;4.68;2.80;;;;;;;15.54;86.16;99570.31;10194909;28;21092;-64
2022/10/01 17:03:07;;;;;;;5.60;2.45;;;;;;;15.47;86.60;99585.44;10182201;28;20050;-64
2022/10/01 17:08:11;;;;;;;3.80;1.95;;;;;;;15.41;87.55;99602.22;10186417;28;20127;-65
2022/10/01 17:13:13;;;;;;;5.72;2.00;;;;;;;15.33;88.28;99618.31;10186287;28;20055;-66
2022/10/01 17:18:17;;;;;;;4.75;1.80;;;;;;;15.20;89.52;99610.78;10186923;28;20493;-63
2022/10/01 17:23:21;;;;;;;9.38;3.05;;;;;;;15.18;90.19;99627.03;10201045;28;20059;-64
2022/10/01 17:28:23;;;;;;;4.20;1.88;;;;;;;14.94;90.72;99600.25;10189485;28;20051;-64
2022/10/01 17:33:26;;;;;;;4.95;1.95;;;;;;;15.05;91.91;99634.75;10181776;28;20573;-64
2022/10/01 17:38:27;;;;;;;5.30;1.73;;;;;;;14.96;92.37;99647.31;10175390;28;20058;-66
2022/10/01 17:43:28;;;;;;;5.13;1.85;;;;;;;14.88;92.87;99643.78;10176605;28;20206;-64
2022/10/01 17:48:30;;;;;;;3.67;1.48;;;;;;;14.96;93.32;99667.91;10186692;28;20449;-63
2022/10/01 17:53:32;;;;;;;3.38;1.40;;;;;;;14.96;92.66;99670.59;10182212;28;20592;-65
2022/10/01 17:58:42;;;;;;;5.43;1.90;;;;;;;14.95;92.49;99687.66;10184063;28;20054;-64
2022/10/01 18:03:46;;;;;;;3.80;2.00;;;;;;;14.83;92.09;99685.31;10195646;28;20584;-64
2022/10/01 18:08:48;;;;;;;3.70;1.95;;;;;;;14.84;92.69;99724.50;10183577;28;20948;-64
2022/10/01 18:13:57;;;;;;;4.05;1.70;;;;;;;14.76;92.20;99729.84;10178932;28;21196;-65
2022/10/01 18:19:01;;;;;;;3.40;1.77;;;;;;;14.74;91.65;99739.03;10181937;28;20051;-65
2022/10/01 18:24:22;;;;;;;3.33;1.63;;;;;;;14.58;91.26;99718.38;10181206;28;20070;-65
2022/10/01 18:29:26;;;;;;;3.25;1.73;;;;;;;14.82;90.43;99781.94;10181545;28;20092;-64
2022/10/01 18:34:38;;;;;;;4.40;1.63;;;;;;;14.69;90.31;99768.16;10193357;28;20070;-64
2022/10/01 18:39:46;;;;;;;3.55;1.67;;;;;;;14.74;90.25;99785.44;10179489;28;20139;-64
2022/10/01 18:44:58;;;;;;;5.13;2.10;;;;;;;14.65;90.14;99794.41;10176930;28;20055;-64
2022/10/01 18:50:11;;;;;;;5.38;1.70;;;;;;;14.63;90.26;99807.16;10179830;28;20066;-63
2022/10/01 18:55:19;;;;;;;2.53;1.38;;;;;;;14.62;89.88;99819.72;10180969;28;20059;-60
2022/10/01 19:00:22;;;;;;;5.07;1.98;;;;;;;14.54;88.63;99822.31;10178686;28;20066;-64
2022/10/01 19:05:54;;;;;;;4.32;2.00;;;;;;;14.62;87.67;99838.47;10176508;28;20058;-63
2022/10/01 19:11:41;;;;;;;4.75;1.73;;;;;;;14.62;86.79;99853.69;10175395;28;20370;-63
2022/10/01 19:16:51;;;;;;;5.70;2.03;;;;;;;14.47;86.11;99840.88;10174162;28;20062;-64
2022/10/01 19:21:59;;;;;;;5.20;1.77;;;;;;;14.59;85.58;99870.03;10177202;28;20043;-64
2022/10/01 19:27:22;;;;;;;6.78;1.80;;;;;;;14.56;85.17;99870.34;10206376;28;20055;-62
2022/10/01 19:32:29;;;;;;;6.57;2.22;;;;;;;14.52;85.39;99875.19;10178130;28;20058;-64
2022/10/01 19:37:55;;;;;;;7.85;1.70;;;;;;;14.42;85.41;99883.31;10175840;28;20501;-63
2022/10/01 19:43:34;;;;;;;13.63;2.08;;;;;;;14.43;85.59;99900.25;10182744;28;20067;-65
2022/10/01 19:48:58;;;;;;;8.45;2.10;;;;;;;14.56;85.86;99918.56;10186687;28;20057;-63
2022/10/01 19:54:01;;;;;;;8.02;2.75;;;;;;;14.53;85.32;99930.41;10185861;28;20055;-64
2022/10/01 19:59:09;;;;;;;4.65;2.03;;;;;;;14.54;84.95;99931.28;10184839;28;20054;-63
2022/10/01 20:04:23;;;;;;;6.13;2.78;;;;;;;14.56;84.73;99934.63;10181413;28;20520;-62
2022/10/01 20:09:38;;;;;;;4.40;2.70;;;;;;;14.54;85.25;99947.34;10183393;28;20055;-62
2022/10/01 20:15:07;;;;;;;4.40;2.42;;;;;;;14.46;85.21;99967.72;10175929;28;20058;-62
2022/10/01 20:20:19;;;;;;;7.10;3.03;;;;;;;14.41;85.67;99985.22;10186589;28;20059;-61
2022/10/01 20:25:32;;;;;;;6.53;1.83;;;;;;;14.39;86.25;99993.41;10183922;28;20509;-63
2022/10/01 20:30:44;;;;;;;5.40;1.92;;;;;;;14.27;85.50;99994.66;10184861;28;20058;-61
2022/10/01 20:35:59;;;;;;;6.10;3.15;;;;;;;14.21;85.37;100006.81;10185946;28;20050;-63
2022/10/01 20:41:08;;;;;;;5.40;2.00;;;;;;;14.15;85.00;100002.91;10195131;28;20066;-64
2022/10/01 20:46:16;;;;;;;3.92;1.98;;;;;;;14.11;84.95;100006.91;10183953;28;20079;-64
2022/10/01 20:51:31;;;;;;;5.07;2.13;;;;;;;14.10;84.46;100020.44;10199486;28;20055;-63
2022/10/01 20:56:55;;;;;;;6.50;2.17;;;;;;;14.02;85.87;100005.16;10190853;28;20047;-63
2022/10/01 21:02:19;;;;;;;5.53;2.57;;;;;;;14.08;84.73;100033.97;10193880;28;20042;-63
2022/10/01 21:07:52;;;;;;;7.32;2.72;;;;;;;14.04;85.45;100048.66;10183148;28;20847;-63
2022/10/01 21:13:06;;;;;;;7.00;2.30;;;;;;;13.98;86.45;100043.91;10193145;28;20039;-64
2022/10/01 21:18:21;;;;;;;5.07;2.40;;;;;;;13.91;85.71;100038.28;10193554;28;20044;-62
2022/10/01 21:23:25;;;;;;;5.20;2.22;;;;;;;14.02;86.08;100056.00;10191157;28;20052;-62
2022/10/01 21:28:43;;;;;;;;;;;;;;;14.03;86.52;100067.53;10204669;28;20067;-63
2022/10/01 21:34:09;;;;;;;5.38;2.60;;;;;;;14.06;86.33;100068.06;10192515;28;19930;-66
2022/10/01 21:39:30;;;;;;;5.07;2.00;;;;;;;14.06;86.79;100078.78;10187270;28;20048;-65
2022/10/01 21:44:32;;;;;;;9.57;2.90;;;;;;;14.08;87.11;100084.84;10193857;28;20051;-62
2022/10/01 21:49:55;;;;;;;8.88;3.45;;;;;;;14.07;87.53;100091.16;10196799;28;20058;-64
2022/10/01 21:55:25;;;;;;;5.60;2.50;;;;;;;14.12;87.67;100099.56;10196638;28;20058;-63
2022/10/01 22:00:29;;;;;;;7.38;3.33;;;;;;;14.12;88.24;100099.56;10186246;28;20055;-64
2022/10/01 22:05:54;;;;;;;5.53;2.37;;;;;;;14.00;88.36;100110.66;10193893;28;20052;-64
2022/10/01 22:11:02;;;;;;;6.00;2.17;;;;;;;13.81;89.74;100123.16;10184170;28;20055;-65
2022/10/01 22:16:11;;;;;;;3.83;1.40;;;;;;;13.68;90.83;100128.81;10191340;28;20860;-64
2022/10/01 22:21:27;;;;;;;6.07;1.67;;;;;;;13.56;91.09;100130.00;10187821;28;20056;-61
2022/10/01 22:26:32;;;;;;;5.57;1.77;;;;;;;13.53;92.42;100141.81;10194164;28;20055;-64
2022/10/01 22:31:36;;;;;;;4.97;2.05;;;;;;;13.50;92.75;100147.47;10186838;28;20168;-63
2022/10/01 22:36:47;;;;;;;4.72;2.20;;;;;;;13.42;93.63;100150.84;10201234;28;20062;-63
2022/10/01 22:42:14;;;;;;;4.85;1.42;;;;;;;13.47;93.51;100157.63;10190841;28;20063;-65
2022/10/01 22:47:42;;;;;;;6.75;1.70;;;;;;;13.46;93.94;100172.78;10187099;28;20509;-64
2022/10/01 22:52:49;;;;;;;4.75;1.77;;;;;;;13.43;94.83;100173.91;10184142;28;20047;-64
2022/10/01 22:58:12;;;;;;;6.22;1.90;;;;;;;13.48;95.16;100180.66;10179737;28;20058;-63
2022/10/01 23:03:26;;;;;;;4.18;1.52;;;;;;;13.47;95.93;100179.00;10189719;28;20050;-63
2022/10/01 23:08:38;;;;;;;4.32;1.48;;;;;;;13.49;95.50;100183.19;10187494;28;20063;-63
2022/10/01 23:13:55;;;;;;;6.57;2.00;;;;;;;13.57;96.31;100186.00;10189494;28;20043;-62
2022/10/01 23:19:39;;;;;;;6.82;2.00;;;;;;;13.62;95.46;100201.63;10198756;28;20208;-64
2022/10/01 23:24:46;;;;;;;5.32;2.10;;;;;;;13.63;96.28;100200.63;10200056;28;20059;-63
2022/10/01 23:29:59;;;;;;;4.35;2.22;;;;;;;13.61;96.23;100203.44;10197394;28;20477;-62
2022/10/01 23:35:12;;;;;;;5.70;2.20;;;;;;;13.54;97.20;100204.16;10192772;28;20679;-64
2022/10/01 23:40:18;;;;;;;6.03;1.90;;;;;;;13.46;98.00;100193.34;10197887;28;20570;-62
2022/10/01 23:45:41;;;;;;;5.90;2.53;;;;;;;13.51;97.82;100212.47;10191153;28;20060;-63
2022/10/01 23:51:05;;;;;;;7.57;2.33;;;;;;;13.37;99.18;100225.28;10189627;28;20083;-62
